sensor_id;sensor_type;location;lat;lon;timestamp;pressure;altitude;pressure_sealevel;temperature;humidity
70304;BME280;57712;48.752;11.348;2023-04-09T00:00:14;98233.13;;;5.45;100.00
70304;BME280;57712;48.752;11.348;2023-04-09T00:02:42;98226.53;;;5.46;100.00
70304;BME280;57712;48.752;11.348;2023-04-09T00:05:08;98217.25;;;5.47;100.00
70304;BME280;57712;48.752;11.348;2023-04-09T00:07:35;98223.81;;;5.46;100.00
70304;BME280;57712;48.752;11.348;2023-04-09T00:10:02;98219.13;;;5.43;100.00
70304;BME280;57712;48.752;11.348;2023-04-09T00:12:28;98224.13;;;5.41;100.00
70304;BME280;57712;48.752;11.348;2023-04-09T00:14:56;98217.59;;;5.45;100.00
70304;BME280;57712;48.752;11.348;2023-04-09T00:17:23;98223.72;;;5.39;100.00
70304;BME280;57712;48.752;11.348;2023-04-09T00:19:49;98219.47;;;5.41;100.00
70304;BME280;57712;48.752;11.348;2023-04-09T00:22:16;98217.56;;;5.42;100.00
70304;BME280;57712;48.752;11.348;2023-04-09T00:24:43;98221.41;;;5.41;100.00
70304;BME280;57712;48.752;11.348;2023-04-09T00:27:09;98219.91;;;5.43;100.00
70304;BME280;57712;48.752;11.348;2023-04-09T00:29:36;98218.34;;;5.42;100.00
70304;BME280;57712;48.752;11.348;2023-04-09T00:32:03;98210.19;;;5.42;100.00
70304;BME280;57712;48.752;11.348;2023-04-09T00:34:30;98217.56;;;5.42;100.00
70304;BME280;57712;48.752;11.348;2023-04-09T00:36:56;98212.41;;;5.33;100.00
70304;BME280;57712;48.752;11.348;2023-04-09T00:39:23;98208.91;;;5.33;100.00
70304;BME280;57712;48.752;11.348;2023-04-09T00:41:55;98210.88;;;5.36;100.00
70304;BME280;57712;48.752;11.348;2023-04-09T00:44:22;98209.69;;;5.33;100.00
70304;BME280;57712;48.752;11.348;2023-04-09T00:46:49;98204.63;;;5.32;100.00
70304;BME280;57712;48.752;11.348;2023-04-09T00:49:16;98205.81;;;5.34;100.00
70304;BME280;57712;48.752;11.348;2023-04-09T00:51:43;98203.50;;;5.36;100.00
70304;BME280;57712;48.752;11.348;2023-04-09T00:54:11;98210.47;;;5.34;100.00
70304;BME280;57712;48.752;11.348;2023-04-09T00:56:37;98202.72;;;5.36;100.00
70304;BME280;57712;48.752;11.348;2023-04-09T00:59:04;98212.03;;;5.35;100.00
70304;BME280;57712;48.752;11.348;2023-04-09T01:01:31;98205.03;;;5.34;100.00
70304;BME280;57712;48.752;11.348;2023-04-09T01:03:58;98204.53;;;5.28;100.00
70304;BME280;57712;48.752;11.348;2023-04-09T01:17:23;98221.72;;;5.09;100.00
70304;BME280;57712;48.752;11.348;2023-04-09T01:20:06;98214.84;;;5.15;100.00
70304;BME280;57712;48.752;11.348;2023-04-09T01:22:48;98214.78;;;5.12;100.00
70304;BME280;57712;48.752;11.348;2023-04-09T01:25:32;98210.03;;;5.05;100.00
70304;BME280;57712;48.752;11.348;2023-04-09T01:28:14;98213.78;;;4.97;100.00
70304;BME280;57712;48.752;11.348;2023-04-09T01:30:48;98207.69;;;5.04;100.00
70304;BME280;57712;48.752;11.348;2023-04-09T01:33:16;98209.13;;;4.98;100.00
70304;BME280;57712;48.752;11.348;2023-04-09T01:35:48;98207.19;;;4.98;100.00
70304;BME280;57712;48.752;11.348;2023-04-09T01:38:17;98206.38;;;4.94;100.00
70304;BME280;57712;48.752;11.348;2023-04-09T01:40:45;98216.44;;;4.93;100.00
70304;BME280;57712;48.752;11.348;2023-04-09T01:43:12;98217.22;;;4.94;100.00
70304;BME280;57712;48.752;11.348;2023-04-09T01:45:39;98210.22;;;4.93;100.00
70304;BME280;57712;48.752;11.348;2023-04-09T01:48:07;98207.81;;;4.88;100.00
70304;BME280;57712;48.752;11.348;2023-04-09T01:50:34;98215.16;;;4.87;100.00
70304;BME280;57712;48.752;11.348;2023-04-09T01:53:01;98211.38;;;4.92;100.00
70304;BME280;57712;48.752;11.348;2023-04-09T01:55:29;98207.09;;;4.91;100.00
70304;BME280;57712;48.752;11.348;2023-04-09T01:57:55;98211.38;;;4.92;100.00
70304;BME280;57712;48.752;11.348;2023-04-09T02:00:23;98211.38;;;4.92;100.00
70304;BME280;57712;48.752;11.348;2023-04-09T02:03:10;98209.81;;;4.91;100.00
70304;BME280;57712;48.752;11.348;2023-04-09T02:05:44;98219.09;;;4.90;100.00
70304;BME280;57712;48.752;11.348;2023-04-09T02:08:15;98219.81;;;4.87;100.00
70304;BME280;57712;48.752;11.348;2023-04-09T02:10:49;98223.69;;;4.86;100.00
70304;BME280;57712;48.752;11.348;2023-04-09T02:13:21;98224.53;;;4.90;100.00
70304;BME280;57712;48.752;11.348;2023-04-09T02:15:49;98220.22;;;4.89;100.00
70304;BME280;57712;48.752;11.348;2023-04-09T02:18:29;98231.53;;;4.91;100.00
70304;BME280;57712;48.752;11.348;2023-04-09T02:20:57;98219.09;;;4.90;100.00
70304;BME280;57712;48.752;11.348;2023-04-09T02:23:25;98226.03;;;4.87;100.00
70304;BME280;57712;48.752;11.348;2023-04-09T02:25:52;98220.53;;;4.84;100.00
70304;BME280;57712;48.752;11.348;2023-04-09T02:28:19;98221.38;;;4.88;100.00
70304;BME280;57712;48.752;11.348;2023-04-09T02:30:46;98214.22;;;4.76;100.00
70304;BME280;57712;48.752;11.348;2023-04-09T02:33:12;98211.88;;;4.75;100.00
70304;BME280;57712;48.752;11.348;2023-04-09T02:35:39;98216.69;;;4.85;100.00
70304;BME280;57712;48.752;11.348;2023-04-09T02:38:07;98218.19;;;4.82;100.00
70304;BME280;57712;48.752;11.348;2023-04-09T02:40:39;98208.72;;;4.73;100.00
70304;BME280;57712;48.752;11.348;2023-04-09T02:43:07;98219.28;;;4.78;100.00
70304;BME280;57712;48.752;11.348;2023-04-09T02:45:34;98209.16;;;4.75;100.00
70304;BME280;57712;48.752;11.348;2023-04-09T02:48:01;98203.31;;;4.73;100.00
70304;BME280;57712;48.752;11.348;2023-04-09T02:50:33;98196.19;;;4.64;100.00
70304;BME280;57712;48.752;11.348;2023-04-09T02:52:59;98203.72;;;4.52;100.00
70304;BME280;57712;48.752;11.348;2023-04-09T02:55:26;98190.59;;;4.54;100.00
70304;BME280;57712;48.752;11.348;2023-04-09T02:57:53;98196.56;;;4.40;100.00
70304;BME280;57712;48.752;11.348;2023-04-09T03:00:19;98189.38;;;4.28;100.00
70304;BME280;57712;48.752;11.348;2023-04-09T03:02:46;98198.72;;;4.31;100.00
70304;BME280;57712;48.752;11.348;2023-04-09T03:05:13;98198.56;;;4.24;100.00
70304;BME280;57712;48.752;11.348;2023-04-09T03:07:40;98194.41;;;4.07;100.00
70304;BME280;57712;48.752;11.348;2023-04-09T03:10:06;98197.31;;;3.98;100.00
70304;BME280;57712;48.752;11.348;2023-04-09T03:12:33;98203.88;;;3.97;100.00
70304;BME280;57712;48.752;11.348;2023-04-09T03:15:00;98208.78;;;3.72;100.00
70304;BME280;57712;48.752;11.348;2023-04-09T03:17:26;98219.75;;;3.60;100.00
70304;BME280;57712;48.752;11.348;2023-04-09T03:19:53;98218.19;;;3.59;100.00
70304;BME280;57712;48.752;11.348;2023-04-09T03:22:19;98219.69;;;3.57;100.00
70304;BME280;57712;48.752;11.348;2023-04-09T03:24:46;98215.06;;;3.57;100.00
70304;BME280;57712;48.752;11.348;2023-04-09T03:27:13;98217.25;;;3.52;100.00
70304;BME280;57712;48.752;11.348;2023-04-09T03:29:40;98220.25;;;3.46;100.00
70304;BME280;57712;48.752;11.348;2023-04-09T03:32:06;98209.41;;;3.46;100.00
70304;BME280;57712;48.752;11.348;2023-04-09T03:34:33;98214.25;;;3.37;100.00
70304;BME280;57712;48.752;11.348;2023-04-09T03:36:59;98215.81;;;3.38;100.00
70304;BME280;57712;48.752;11.348;2023-04-09T03:39:26;98204.38;;;3.29;100.00
70304;BME280;57712;48.752;11.348;2023-04-09T03:41:56;98207.38;;;3.24;100.00
70304;BME280;57712;48.752;11.348;2023-04-09T03:44:24;98216.47;;;3.16;100.00
70304;BME280;57712;48.752;11.348;2023-04-09T03:46:51;98224.16;;;3.14;100.00
70304;BME280;57712;48.752;11.348;2023-04-09T03:49:18;98224.69;;;3.04;100.00
70304;BME280;57712;48.752;11.348;2023-04-09T03:51:44;98230.91;;;3.04;100.00
70304;BME280;57712;48.752;11.348;2023-04-09T03:54:11;98227.47;;;2.92;100.00
70304;BME280;57712;48.752;11.348;2023-04-09T03:56:38;98228.19;;;2.88;100.00
70304;BME280;57712;48.752;11.348;2023-04-09T03:59:05;98232.75;;;2.84;100.00
70304;BME280;57712;48.752;11.348;2023-04-09T04:01:31;98225.06;;;2.86;100.00
70304;BME280;57712;48.752;11.348;2023-04-09T04:03:58;98231.00;;;2.76;100.00
70304;BME280;57712;48.752;11.348;2023-04-09T04:06:25;98232.56;;;2.77;100.00
70304;BME280;57712;48.752;11.348;2023-04-09T04:08:52;98230.22;;;2.76;100.00
70304;BME280;57712;48.752;11.348;2023-04-09T04:11:19;98233.84;;;2.68;100.00
70304;BME280;57712;48.752;11.348;2023-04-09T04:13:46;98236.91;;;2.66;100.00
70304;BME280;57712;48.752;11.348;2023-04-09T04:16:13;98226.81;;;2.63;100.00
70304;BME280;57712;48.752;11.348;2023-04-09T04:18:39;98235.09;;;2.54;100.00
70304;BME280;57712;48.752;11.348;2023-04-09T04:21:14;98235.09;;;2.54;100.00
70304;BME280;57712;48.752;11.348;2023-04-09T04:23:41;98233.31;;;2.46;100.00
70304;BME280;57712;48.752;11.348;2023-04-09T04:26:09;98232.19;;;2.47;100.00
70304;BME280;57712;48.752;11.348;2023-04-09T04:28:37;98237.06;;;2.42;100.00
70304;BME280;57712;48.752;11.348;2023-04-09T04:31:10;98240.38;;;2.35;100.00
70304;BME280;57712;48.752;11.348;2023-04-09T04:33:39;98229.03;;;2.29;100.00
70304;BME280;57712;48.752;11.348;2023-04-09T04:36:08;98229.47;;;2.31;100.00
70304;BME280;57712;48.752;11.348;2023-04-09T04:38:35;98228.84;;;2.22;100.00
70304;BME280;57712;48.752;11.348;2023-04-09T04:41:02;98233.09;;;2.23;100.00
70304;BME280;57712;48.752;11.348;2023-04-09T04:43:29;98236.25;;;2.25;100.00
70304;BME280;57712;48.752;11.348;2023-04-09T04:45:56;98234.94;;;2.19;100.00
70304;BME280;57712;48.752;11.348;2023-04-09T04:48:22;98236.59;;;2.24;100.00
70304;BME280;57712;48.752;11.348;2023-04-09T04:50:56;98232.69;;;2.21;100.00
70304;BME280;57712;48.752;11.348;2023-04-09T04:53:24;98234.94;;;2.19;100.00
70304;BME280;57712;48.752;11.348;2023-04-09T04:55:50;98239.44;;;2.15;100.00
70304;BME280;57712;48.752;11.348;2023-04-09T04:58:17;98241.13;;;2.20;100.00
70304;BME280;57712;48.752;11.348;2023-04-09T05:00:44;98249.31;;;2.23;100.00
70304;BME280;57712;48.752;11.348;2023-04-09T05:03:11;98248.19;;;2.24;100.00
70304;BME280;57712;48.752;11.348;2023-04-09T05:05:38;98254.47;;;2.28;100.00
70304;BME280;57712;48.752;11.348;2023-04-09T05:08:05;98255.16;;;2.25;100.00
70304;BME280;57712;48.752;11.348;2023-04-09T05:10:32;98256.94;;;2.34;100.00
70304;BME280;57712;48.752;11.348;2023-04-09T05:13:01;98257.81;;;2.38;100.00
70304;BME280;57712;48.752;11.348;2023-04-09T05:15:28;98258.25;;;2.40;100.00
70304;BME280;57712;48.752;11.348;2023-04-09T05:17:55;98256.44;;;2.44;100.00
70304;BME280;57712;48.752;11.348;2023-04-09T05:20:22;98267.25;;;2.44;100.00
70304;BME280;57712;48.752;11.348;2023-04-09T05:22:48;98263.16;;;2.50;100.00
70304;BME280;57712;48.752;11.348;2023-04-09T05:25:15;98268.31;;;2.55;100.00
70304;BME280;57712;48.752;11.348;2023-04-09T05:27:42;98266.75;;;2.54;100.00
70304;BME280;57712;48.752;11.348;2023-04-09T05:30:08;98262.41;;;2.65;100.00
70304;BME280;57712;48.752;11.348;2023-04-09T05:32:35;98276.53;;;2.74;100.00
70304;BME280;57712;48.752;11.348;2023-04-09T05:35:02;98270.44;;;2.77;100.00
70304;BME280;57712;48.752;11.348;2023-04-09T05:37:29;98270.50;;;2.81;100.00
70304;BME280;57712;48.752;11.348;2023-04-09T05:39:56;98263.78;;;2.90;100.00
70304;BME280;57712;48.752;11.348;2023-04-09T05:42:22;98271.66;;;2.96;100.00
70304;BME280;57712;48.752;11.348;2023-04-09T05:44:49;98276.56;;;3.06;100.00
70304;BME280;57712;48.752;11.348;2023-04-09T05:47:16;98274.28;;;3.08;100.00
70304;BME280;57712;48.752;11.348;2023-04-09T05:49:43;98270.50;;;3.12;100.00
70304;BME280;57712;48.752;11.348;2023-04-09T05:52:09;98276.19;;;3.23;100.00
70304;BME280;57712;48.752;11.348;2023-04-09T05:54:36;98264.91;;;3.37;100.00
70304;BME280;57712;48.752;11.348;2023-04-09T05:57:03;98272.06;;;3.45;100.00
70304;BME280;57712;48.752;11.348;2023-04-09T05:59:29;98277.75;;;3.40;100.00
70304;BME280;57712;48.752;11.348;2023-04-09T06:01:56;98276.84;;;3.52;100.00
70304;BME280;57712;48.752;11.348;2023-04-09T06:04:23;98279.09;;;3.65;100.00
70304;BME280;57712;48.752;11.348;2023-04-09T06:06:50;98282.81;;;3.76;100.00
70304;BME280;57712;48.752;11.348;2023-04-09T06:09:17;98283.91;;;3.91;100.00
70304;BME280;57712;48.752;11.348;2023-04-09T06:11:43;98286.00;;;3.98;100.00
70304;BME280;57712;48.752;11.348;2023-04-09T06:14:10;98286.06;;;4.01;100.00
70304;BME280;57712;48.752;11.348;2023-04-09T06:16:41;98283.56;;;4.12;100.00
70304;BME280;57712;48.752;11.348;2023-04-09T06:19:08;98285.53;;;4.15;100.00
70304;BME280;57712;48.752;11.348;2023-04-09T06:21:34;98277.00;;;4.32;100.00
70304;BME280;57712;48.752;11.348;2023-04-09T06:24:01;98277.19;;;4.43;100.00
70304;BME280;57712;48.752;11.348;2023-04-09T06:26:28;98285.91;;;4.52;100.00
70304;BME280;57712;48.752;11.348;2023-04-09T06:28:54;98280.66;;;4.63;100.00
70304;BME280;57712;48.752;11.348;2023-04-09T06:31:21;98280.13;;;4.77;100.00
70304;BME280;57712;48.752;11.348;2023-04-09T06:33:48;98274.28;;;4.75;100.00
70304;BME280;57712;48.752;11.348;2023-04-09T06:36:14;98276.22;;;4.97;100.00
70304;BME280;57712;48.752;11.348;2023-04-09T06:38:41;98275.84;;;4.99;100.00
70304;BME280;57712;48.752;11.348;2023-04-09T06:41:07;98278.31;;;5.07;100.00
70304;BME280;57712;48.752;11.348;2023-04-09T06:43:34;98283.38;;;5.32;100.00
70304;BME280;57712;48.752;11.348;2023-04-09T06:46:02;98291.88;;;5.53;100.00
70304;BME280;57712;48.752;11.348;2023-04-09T06:48:29;98285.81;;;5.63;100.00
70304;BME280;57712;48.752;11.348;2023-04-09T06:50:56;98288.16;;;5.65;100.00
70304;BME280;57712;48.752;11.348;2023-04-09T06:53:23;98284.06;;;5.78;100.00
70304;BME280;57712;48.752;11.348;2023-04-09T06:55:49;98285.66;;;5.83;100.00
70304;BME280;57712;48.752;11.348;2023-04-09T06:58:16;98285.25;;;6.07;100.00
70304;BME280;57712;48.752;11.348;2023-04-09T07:00:43;98292.94;;;6.31;100.00
70304;BME280;57712;48.752;11.348;2023-04-09T07:03:09;98290.41;;;6.49;100.00
70304;BME280;57712;48.752;11.348;2023-04-09T07:05:36;98286.66;;;6.61;100.00
70304;BME280;57712;48.752;11.348;2023-04-09T07:08:03;98289.63;;;6.86;100.00
70304;BME280;57712;48.752;11.348;2023-04-09T07:10:30;98282.50;;;7.15;100.00
70304;BME280;57712;48.752;11.348;2023-04-09T07:12:57;98279.44;;;7.20;100.00
70304;BME280;57712;48.752;11.348;2023-04-09T07:15:23;98273.22;;;7.23;100.00
70304;BME280;57712;48.752;11.348;2023-04-09T07:17:50;98268.19;;;7.29;100.00
70304;BME280;57712;48.752;11.348;2023-04-09T07:20:17;98275.31;;;7.40;100.00
70304;BME280;57712;48.752;11.348;2023-04-09T07:22:43;98276.56;;;7.53;100.00
70304;BME280;57712;48.752;11.348;2023-04-09T07:25:10;98278.91;;;7.59;100.00
70304;BME280;57712;48.752;11.348;2023-04-09T07:27:37;98287.59;;;7.75;100.00
70304;BME280;57712;48.752;11.348;2023-04-09T07:30:04;98272.94;;;8.01;100.00
70304;BME280;57712;48.752;11.348;2023-04-09T07:32:31;98276.09;;;8.06;100.00
70304;BME280;57712;48.752;11.348;2023-04-09T07:34:57;98271.03;;;8.12;100.00
70304;BME280;57712;48.752;11.348;2023-04-09T07:37:25;98261.56;;;7.88;100.00
70304;BME280;57712;48.752;11.348;2023-04-09T07:39:52;98263.63;;;8.05;100.00
70304;BME280;57712;48.752;11.348;2023-04-09T07:42:19;98266.69;;;8.00;100.00
70304;BME280;57712;48.752;11.348;2023-04-09T07:44:45;98274.91;;;8.07;100.00
70304;BME280;57712;48.752;11.348;2023-04-09T07:47:13;98267.16;;;8.13;100.00
70304;BME280;57712;48.752;11.348;2023-04-09T07:49:39;98272.66;;;8.31;100.00
70304;BME280;57712;48.752;11.348;2023-04-09T07:52:06;98264.47;;;8.24;100.00
70304;BME280;57712;48.752;11.348;2023-04-09T07:54:34;98270.69;;;8.21;100.00
70304;BME280;57712;48.752;11.348;2023-04-09T07:57:01;98273.19;;;8.61;100.00
70304;BME280;57712;48.752;11.348;2023-04-09T07:59:28;98279.41;;;8.51;100.00
70304;BME280;57712;48.752;11.348;2023-04-09T08:01:56;98284.03;;;8.40;100.00
70304;BME280;57712;48.752;11.348;2023-04-09T08:04:23;98285.69;;;8.55;100.00
70304;BME280;57712;48.752;11.348;2023-04-09T08:06:50;98301.28;;;8.58;100.00
70304;BME280;57712;48.752;11.348;2023-04-09T08:09:17;98294.31;;;8.79;100.00
70304;BME280;57712;48.752;11.348;2023-04-09T08:11:44;98293.56;;;9.14;100.00
70304;BME280;57712;48.752;11.348;2023-04-09T08:14:14;98298.25;;;9.17;100.00
70304;BME280;57712;48.752;11.348;2023-04-09T08:16:43;98302.56;;;9.32;100.00
70304;BME280;57712;48.752;11.348;2023-04-09T08:19:10;98293.53;;;9.67;100.00
70304;BME280;57712;48.752;11.348;2023-04-09T08:21:38;98298.25;;;9.70;100.00
70304;BME280;57712;48.752;11.348;2023-04-09T08:24:09;98297.09;;;9.43;100.00
70304;BME280;57712;48.752;11.348;2023-04-09T08:26:37;98301.75;;;9.67;100.00
70304;BME280;57712;48.752;11.348;2023-04-09T08:29:04;98292.78;;;9.63;100.00
70304;BME280;57712;48.752;11.348;2023-04-09T08:31:30;98301.78;;;9.53;100.00
70304;BME280;57712;48.752;11.348;2023-04-09T08:33:57;98301.00;;;9.28;100.00
70304;BME280;57712;48.752;11.348;2023-04-09T08:36:24;98302.09;;;9.98;100.00
70304;BME280;57712;48.752;11.348;2023-04-09T08:38:51;98301.34;;;9.79;100.00
70304;BME280;57712;48.752;11.348;2023-04-09T08:41:23;98307.59;;;8.94;100.00
70304;BME280;57712;48.752;11.348;2023-04-09T08:43:51;98306.44;;;8.88;100.00
70304;BME280;57712;48.752;11.348;2023-04-09T08:46:21;98293.97;;;9.16;100.00
70304;BME280;57712;48.752;11.348;2023-04-09T08:48:50;98306.84;;;9.44;100.00
70304;BME280;57712;48.752;11.348;2023-04-09T08:51:19;98302.56;;;9.64;100.00
70304;BME280;57712;48.752;11.348;2023-04-09T08:53:49;98299.81;;;9.71;100.00
70304;BME280;57712;48.752;11.348;2023-04-09T08:56:18;98296.69;;;9.62;100.00
70304;BME280;57712;48.752;11.348;2023-04-09T08:58:47;98304.06;;;9.79;100.00
70304;BME280;57712;48.752;11.348;2023-04-09T09:01:29;98295.78;;;10.15;100.00
70304;BME280;57712;48.752;11.348;2023-04-09T09:04:07;98298.41;;;10.54;100.00
70304;BME280;57712;48.752;11.348;2023-04-09T09:06:36;98294.13;;;10.50;100.00
70304;BME280;57712;48.752;11.348;2023-04-09T09:09:16;98293.00;;;10.44;100.00
70304;BME280;57712;48.752;11.348;2023-04-09T09:11:46;98299.13;;;10.62;100.00
70304;BME280;57712;48.752;11.348;2023-04-09T09:14:15;98292.75;;;10.83;100.00
70304;BME280;57712;48.752;11.348;2023-04-09T09:17:03;98291.13;;;10.92;100.00
70304;BME280;57712;48.752;11.348;2023-04-09T09:19:32;98296.22;;;10.97;100.00
70304;BME280;57712;48.752;11.348;2023-04-09T09:22:05;98288.50;;;10.78;100.00
70304;BME280;57712;48.752;11.348;2023-04-09T09:24:45;98294.38;;;10.73;100.00
70304;BME280;57712;48.752;11.348;2023-04-09T09:27:35;98284.22;;;10.70;100.00
70304;BME280;57712;48.752;11.348;2023-04-09T09:30:03;98285.59;;;10.30;100.00
70304;BME280;57712;48.752;11.348;2023-04-09T09:32:31;98285.53;;;10.48;100.00
70304;BME280;57712;48.752;11.348;2023-04-09T09:37:29;98278.94;;;11.01;100.00
70304;BME280;57712;48.752;11.348;2023-04-09T09:39:57;98274.47;;;11.24;100.00
70304;BME280;57712;48.752;11.348;2023-04-09T09:42:24;98285.06;;;11.26;100.00
70304;BME280;57712;48.752;11.348;2023-04-09T09:44:53;98278.09;;;11.11;100.00
70304;BME280;57712;48.752;11.348;2023-04-09T09:47:21;98279.94;;;11.24;100.00
70304;BME280;57712;48.752;11.348;2023-04-09T09:49:49;98287.41;;;10.65;100.00
70304;BME280;57712;48.752;11.348;2023-04-09T09:52:21;98289.03;;;11.18;100.00
70304;BME280;57712;48.752;11.348;2023-04-09T09:54:51;98285.94;;;11.09;100.00
70304;BME280;57712;48.752;11.348;2023-04-09T09:57:19;98281.56;;;10.63;100.00
70304;BME280;57712;48.752;11.348;2023-04-09T10:00:00;98290.53;;;10.67;100.00
70304;BME280;57712;48.752;11.348;2023-04-09T10:02:30;98278.91;;;11.08;97.51
70304;BME280;57712;48.752;11.348;2023-04-09T10:05:04;98284.41;;;11.52;95.52
70304;BME280;57712;48.752;11.348;2023-04-09T10:07:31;98288.47;;;11.37;97.83
70304;BME280;57712;48.752;11.348;2023-04-09T10:09:59;98283.38;;;11.39;91.07
70304;BME280;57712;48.752;11.348;2023-04-09T10:12:27;98281.94;;;12.06;100.00
70304;BME280;57712;48.752;11.348;2023-04-09T10:14:54;98280.31;;;12.12;85.75
70304;BME280;57712;48.752;11.348;2023-04-09T10:17:21;98288.31;;;12.64;81.16
70304;BME280;57712;48.752;11.348;2023-04-09T10:19:55;98292.06;;;12.78;93.45
70304;BME280;57712;48.752;11.348;2023-04-09T10:22:25;98290.06;;;12.51;84.92
70304;BME280;57712;48.752;11.348;2023-04-09T10:24:54;98276.25;;;12.85;74.43
70304;BME280;57712;48.752;11.348;2023-04-09T10:27:25;98281.16;;;12.70;77.21
70304;BME280;57712;48.752;11.348;2023-04-09T10:29:52;98294.50;;;12.72;77.03
70304;BME280;57712;48.752;11.348;2023-04-09T10:32:22;98277.50;;;12.50;77.06
70304;BME280;57712;48.752;11.348;2023-04-09T10:34:56;98283.91;;;12.40;76.22
70304;BME280;57712;48.752;11.348;2023-04-09T10:37:26;98284.69;;;12.10;74.62
70304;BME280;57712;48.752;11.348;2023-04-09T10:39:53;98282.41;;;11.56;90.25
70304;BME280;57712;48.752;11.348;2023-04-09T10:42:37;98278.06;;;12.04;94.40
70304;BME280;57712;48.752;11.348;2023-04-09T10:45:08;98273.56;;;11.83;75.60
70304;BME280;57712;48.752;11.348;2023-04-09T10:47:37;98275.22;;;11.73;69.64
70304;BME280;57712;48.752;11.348;2023-04-09T10:52:42;98279.97;;;12.10;78.29
70304;BME280;57712;48.752;11.348;2023-04-09T10:55:29;98277.63;;;12.39;68.36
70304;BME280;57712;48.752;11.348;2023-04-09T10:57:57;98277.44;;;12.23;73.30
70304;BME280;57712;48.752;11.348;2023-04-09T11:00:23;98273.09;;;12.26;83.12
70304;BME280;57712;48.752;11.348;2023-04-09T11:05:35;98265.59;;;12.60;83.04
70304;BME280;57712;48.752;11.348;2023-04-09T11:08:12;98271.47;;;12.89;68.39
70304;BME280;57712;48.752;11.348;2023-04-09T11:10:41;98269.25;;;13.35;65.55
70304;BME280;57712;48.752;11.348;2023-04-09T11:13:16;98270.16;;;14.54;62.74
70304;BME280;57712;48.752;11.348;2023-04-09T11:15:44;98262.09;;;14.24;62.59
70304;BME280;57712;48.752;11.348;2023-04-09T11:18:19;98258.28;;;14.93;56.46
70304;BME280;57712;48.752;11.348;2023-04-09T11:20:46;98260.88;;;13.85;54.08
70304;BME280;57712;48.752;11.348;2023-04-09T11:23:16;98261.94;;;13.91;58.09
70304;BME280;57712;48.752;11.348;2023-04-09T11:25:47;98261.44;;;13.29;55.99
70304;BME280;57712;48.752;11.348;2023-04-09T11:28:14;98262.28;;;13.73;64.95
70304;BME280;57712;48.752;11.348;2023-04-09T11:30:41;98257.09;;;13.55;61.81
70304;BME280;57712;48.752;11.348;2023-04-09T11:33:09;98263.13;;;13.47;63.18
70304;BME280;57712;48.752;11.348;2023-04-09T11:35:36;98252.00;;;13.31;63.58
70304;BME280;57712;48.752;11.348;2023-04-09T11:38:10;98252.81;;;13.04;57.85
70304;BME280;57712;48.752;11.348;2023-04-09T11:40:40;98256.72;;;14.16;59.09
70304;BME280;57712;48.752;11.348;2023-04-09T11:43:14;98257.09;;;14.38;54.51
70304;BME280;57712;48.752;11.348;2023-04-09T11:45:44;98252.19;;;15.02;52.55
70304;BME280;57712;48.752;11.348;2023-04-09T11:48:15;98253.28;;;15.05;56.54
70304;BME280;57712;48.752;11.348;2023-04-09T11:50:44;98243.34;;;15.56;56.55
70304;BME280;57712;48.752;11.348;2023-04-09T11:53:21;98246.47;;;15.25;54.63
70304;BME280;57712;48.752;11.348;2023-04-09T11:55:52;98246.22;;;15.04;54.81
70304;BME280;57712;48.752;11.348;2023-04-09T11:58:24;98247.69;;;14.56;55.45
70304;BME280;57712;48.752;11.348;2023-04-09T12:00:52;98252.91;;;15.51;55.21
70304;BME280;57712;48.752;11.348;2023-04-09T12:03:27;98258.28;;;14.93;55.83
70304;BME280;57712;48.752;11.348;2023-04-09T12:05:55;98245.84;;;16.25;53.77
70304;BME280;57712;48.752;11.348;2023-04-09T12:08:22;98244.91;;;16.02;53.90
70304;BME280;57712;48.752;11.348;2023-04-09T12:10:50;98251.41;;;15.01;55.79
70304;BME280;57712;48.752;11.348;2023-04-09T12:13:19;98248.28;;;15.65;57.38
70304;BME280;57712;48.752;11.348;2023-04-09T12:15:48;98246.69;;;15.80;57.20
70304;BME280;57712;48.752;11.348;2023-04-09T12:18:15;98246.97;;;15.69;58.07
70304;BME280;57712;48.752;11.348;2023-04-09T12:20:42;98250.84;;;15.72;58.01
70304;BME280;57712;48.752;11.348;2023-04-09T12:23:11;98250.97;;;15.19;59.43
70304;BME280;57712;48.752;11.348;2023-04-09T12:25:39;98257.91;;;13.02;66.00
70304;BME280;57712;48.752;11.348;2023-04-09T12:28:08;98258.88;;;13.66;70.45
70304;BME280;57712;48.752;11.348;2023-04-09T12:30:35;98255.78;;;13.40;69.58
70304;BME280;57712;48.752;11.348;2023-04-09T12:33:02;98246.28;;;13.45;83.01
70304;BME280;57712;48.752;11.348;2023-04-09T12:35:30;98242.06;;;12.86;78.84
70304;BME280;57712;48.752;11.348;2023-04-09T12:37:57;98245.09;;;12.92;77.38
70304;BME280;57712;48.752;11.348;2023-04-09T12:40:25;98240.97;;;12.53;75.23
70304;BME280;57712;48.752;11.348;2023-04-09T12:42:52;98241.25;;;12.62;78.72
70304;BME280;57712;48.752;11.348;2023-04-09T12:45:19;98243.38;;;13.01;78.63
70304;BME280;57712;48.752;11.348;2023-04-09T12:47:46;98241.03;;;13.94;62.63
70304;BME280;57712;48.752;11.348;2023-04-09T12:50:14;98226.69;;;13.82;63.74
70304;BME280;57712;48.752;11.348;2023-04-09T12:52:41;98230.78;;;13.74;64.82
70304;BME280;57712;48.752;11.348;2023-04-09T12:55:09;98241.72;;;13.35;67.42
70304;BME280;57712;48.752;11.348;2023-04-09T12:57:37;98226.31;;;13.14;67.55
70304;BME280;57712;48.752;11.348;2023-04-09T13:00:07;98239.16;;;12.97;69.96
70304;BME280;57712;48.752;11.348;2023-04-09T13:02:34;98226.47;;;12.49;69.36
70304;BME280;57712;48.752;11.348;2023-04-09T13:05:01;98231.69;;;12.40;73.60
70304;BME280;57712;48.752;11.348;2023-04-09T13:07:30;98229.88;;;12.87;73.28
70304;BME280;57712;48.752;11.348;2023-04-09T13:09:57;98226.44;;;13.07;72.58
70304;BME280;57712;48.752;11.348;2023-04-09T13:12:24;98224.06;;;13.55;71.31
70304;BME280;57712;48.752;11.348;2023-04-09T13:14:53;98227.53;;;12.86;69.38